sensor_id;sensor_type;location;lat;lon;timestamp;temperature;humidity
8953;DHT22;4511;50.890;8.054;2022-10-16T00:00:36;13.70;99.90
8953;DHT22;4511;50.890;8.054;2022-10-16T00:03:04;13.70;99.90
8953;DHT22;4511;50.890;8.054;2022-10-16T00:05:31;13.70;99.90
8953;DHT22;4511;50.890;8.054;2022-10-16T00:07:58;13.60;99.90
8953;DHT22;4511;50.890;8.054;2022-10-16T00:10:24;13.60;99.90
8953;DHT22;4511;50.890;8.054;2022-10-16T00:12:52;13.60;99.90
8953;DHT22;4511;50.890;8.054;2022-10-16T00:15:19;13.60;99.90
8953;DHT22;4511;50.890;8.054;2022-10-16T00:17:46;13.70;99.90
8953;DHT22;4511;50.890;8.054;2022-10-16T00:20:13;13.70;99.90
8953;DHT22;4511;50.890;8.054;2022-10-16T00:22:39;13.60;99.90
8953;DHT22;4511;50.890;8.054;2022-10-16T00:25:06;13.60;99.90
8953;DHT22;4511;50.890;8.054;2022-10-16T00:27:33;13.60;99.90
8953;DHT22;4511;50.890;8.054;2022-10-16T00:30:01;13.70;99.90
8953;DHT22;4511;50.890;8.054;2022-10-16T00:32:28;13.70;99.90
8953;DHT22;4511;50.890;8.054;2022-10-16T00:34:55;13.60;99.90
8953;DHT22;4511;50.890;8.054;2022-10-16T00:37:22;13.70;99.90
8953;DHT22;4511;50.890;8.054;2022-10-16T00:39:49;13.70;99.90
8953;DHT22;4511;50.890;8.054;2022-10-16T00:42:16;13.70;99.90
8953;DHT22;4511;50.890;8.054;2022-10-16T00:44:47;13.70;99.90
8953;DHT22;4511;50.890;8.054;2022-10-16T00:47:20;13.70;99.90
8953;DHT22;4511;50.890;8.054;2022-10-16T00:49:50;13.70;99.90
8953;DHT22;4511;50.890;8.054;2022-10-16T00:52:17;13.70;99.90
8953;DHT22;4511;50.890;8.054;2022-10-16T00:54:46;13.70;99.90
8953;DHT22;4511;50.890;8.054;2022-10-16T00:57:13;13.70;99.90
8953;DHT22;4511;50.890;8.054;2022-10-16T00:59:41;13.60;99.90
8953;DHT22;4511;50.890;8.054;2022-10-16T01:02:13;13.70;99.90
8953;DHT22;4511;50.890;8.054;2022-10-16T01:04:45;13.70;99.90
8953;DHT22;4511;50.890;8.054;2022-10-16T01:07:17;13.70;99.90
8953;DHT22;4511;50.890;8.054;2022-10-16T01:09:57;13.70;99.90
8953;DHT22;4511;50.890;8.054;2022-10-16T01:12:35;13.70;99.90
8953;DHT22;4511;50.890;8.054;2022-10-16T01:15:10;13.70;99.90
8953;DHT22;4511;50.890;8.054;2022-10-16T01:17:41;13.70;99.90
8953;DHT22;4511;50.890;8.054;2022-10-16T01:20:18;13.70;99.90
8953;DHT22;4511;50.890;8.054;2022-10-16T01:23:02;13.70;99.90
8953;DHT22;4511;50.890;8.054;2022-10-16T01:25:52;13.70;99.90
8953;DHT22;4511;50.890;8.054;2022-10-16T01:28:27;13.70;99.90
8953;DHT22;4511;50.890;8.054;2022-10-16T01:30:58;13.70;99.90
8953;DHT22;4511;50.890;8.054;2022-10-16T01:33:28;13.70;99.90
8953;DHT22;4511;50.890;8.054;2022-10-16T01:36:00;13.70;99.90
8953;DHT22;4511;50.890;8.054;2022-10-16T01:38:32;13.70;99.90
8953;DHT22;4511;50.890;8.054;2022-10-16T01:41:03;13.70;99.90
8953;DHT22;4511;50.890;8.054;2022-10-16T01:43:36;13.70;99.90
8953;DHT22;4511;50.890;8.054;2022-10-16T01:46:05;13.70;99.90
8953;DHT22;4511;50.890;8.054;2022-10-16T01:48:33;13.70;99.90
8953;DHT22;4511;50.890;8.054;2022-10-16T01:51:03;13.60;99.90
8953;DHT22;4511;50.890;8.054;2022-10-16T01:53:31;13.60;99.90
8953;DHT22;4511;50.890;8.054;2022-10-16T01:55:59;13.60;99.90
8953;DHT22;4511;50.890;8.054;2022-10-16T01:58:27;13.60;99.90
8953;DHT22;4511;50.890;8.054;2022-10-16T02:00:57;13.60;99.90
8953;DHT22;4511;50.890;8.054;2022-10-16T02:03:24;13.70;99.90
8953;DHT22;4511;50.890;8.054;2022-10-16T02:05:53;13.60;99.90
8953;DHT22;4511;50.890;8.054;2022-10-16T02:08:21;13.60;99.90
8953;DHT22;4511;50.890;8.054;2022-10-16T02:10:49;13.60;99.90
8953;DHT22;4511;50.890;8.054;2022-10-16T02:13:18;13.60;99.90
8953;DHT22;4511;50.890;8.054;2022-10-16T02:15:47;13.60;99.90
8953;DHT22;4511;50.890;8.054;2022-10-16T02:18:16;13.60;99.90
8953;DHT22;4511;50.890;8.054;2022-10-16T02:20:48;13.60;99.90
8953;DHT22;4511;50.890;8.054;2022-10-16T02:23:22;13.60;99.90
8953;DHT22;4511;50.890;8.054;2022-10-16T02:25:51;13.50;99.90
8953;DHT22;4511;50.890;8.054;2022-10-16T02:28:23;13.50;99.90
8953;DHT22;4511;50.890;8.054;2022-10-16T02:30:54;13.50;99.90
8953;DHT22;4511;50.890;8.054;2022-10-16T02:33:24;13.40;99.90
8953;DHT22;4511;50.890;8.054;2022-10-16T02:35:52;13.30;99.90
8953;DHT22;4511;50.890;8.054;2022-10-16T02:38:21;13.30;99.90
8953;DHT22;4511;50.890;8.054;2022-10-16T02:40:48;13.20;99.90
8953;DHT22;4511;50.890;8.054;2022-10-16T02:43:16;13.20;99.90
8953;DHT22;4511;50.890;8.054;2022-10-16T02:45:42;13.10;99.90
8953;DHT22;4511;50.890;8.054;2022-10-16T02:48:09;13.10;99.90
8953;DHT22;4511;50.890;8.054;2022-10-16T02:50:37;13.00;99.90
8953;DHT22;4511;50.890;8.054;2022-10-16T02:53:04;12.90;99.90
8953;DHT22;4511;50.890;8.054;2022-10-16T02:55:32;12.90;99.90
8953;DHT22;4511;50.890;8.054;2022-10-16T02:57:59;12.90;99.90
8953;DHT22;4511;50.890;8.054;2022-10-16T03:00:25;12.80;99.90
8953;DHT22;4511;50.890;8.054;2022-10-16T03:02:52;12.90;99.90
8953;DHT22;4511;50.890;8.054;2022-10-16T03:05:19;12.90;99.90
8953;DHT22;4511;50.890;8.054;2022-10-16T03:07:47;13.00;99.90
8953;DHT22;4511;50.890;8.054;2022-10-16T03:10:14;13.00;99.90
8953;DHT22;4511;50.890;8.054;2022-10-16T03:12:41;13.00;99.90
8953;DHT22;4511;50.890;8.054;2022-10-16T03:15:08;13.00;99.90
8953;DHT22;4511;50.890;8.054;2022-10-16T03:17:35;13.00;99.90
8953;DHT22;4511;50.890;8.054;2022-10-16T03:20:03;13.00;99.90
8953;DHT22;4511;50.890;8.054;2022-10-16T03:22:30;13.00;99.90
8953;DHT22;4511;50.890;8.054;2022-10-16T03:24:58;13.00;99.90
8953;DHT22;4511;50.890;8.054;2022-10-16T03:27:24;13.00;99.90
8953;DHT22;4511;50.890;8.054;2022-10-16T03:29:51;13.00;99.90
8953;DHT22;4511;50.890;8.054;2022-10-16T03:32:19;13.00;99.90
8953;DHT22;4511;50.890;8.054;2022-10-16T03:34:46;13.00;99.90
8953;DHT22;4511;50.890;8.054;2022-10-16T03:37:13;13.00;99.90
8953;DHT22;4511;50.890;8.054;2022-10-16T03:39:40;13.00;99.90
8953;DHT22;4511;50.890;8.054;2022-10-16T03:42:08;13.00;99.90
8953;DHT22;4511;50.890;8.054;2022-10-16T03:44:35;13.00;99.90
8953;DHT22;4511;50.890;8.054;2022-10-16T03:47:01;13.00;99.90
8953;DHT22;4511;50.890;8.054;2022-10-16T03:49:28;13.00;99.90
8953;DHT22;4511;50.890;8.054;2022-10-16T03:51:55;13.10;99.90
8953;DHT22;4511;50.890;8.054;2022-10-16T03:54:22;13.10;99.90
8953;DHT22;4511;50.890;8.054;2022-10-16T03:56:48;13.10;99.90
8953;DHT22;4511;50.890;8.054;2022-10-16T03:59:16;13.10;99.90
8953;DHT22;4511;50.890;8.054;2022-10-16T04:01:43;13.20;99.90
8953;DHT22;4511;50.890;8.054;2022-10-16T04:04:10;13.20;99.90
8953;DHT22;4511;50.890;8.054;2022-10-16T04:06:37;13.20;99.90
8953;DHT22;4511;50.890;8.054;2022-10-16T04:09:03;13.30;99.90
8953;DHT22;4511;50.890;8.054;2022-10-16T04:11:30;13.30;99.90
8953;DHT22;4511;50.890;8.054;2022-10-16T04:13:57;13.30;99.90
8953;DHT22;4511;50.890;8.054;2022-10-16T04:16:25;13.30;99.90
8953;DHT22;4511;50.890;8.054;2022-10-16T04:18:51;13.20;99.90
8953;DHT22;4511;50.890;8.054;2022-10-16T04:21:18;13.20;99.90
8953;DHT22;4511;50.890;8.054;2022-10-16T04:23:45;13.10;99.90
8953;DHT22;4511;50.890;8.054;2022-10-16T04:26:11;13.10;99.90
8953;DHT22;4511;50.890;8.054;2022-10-16T04:28:38;13.20;99.90
8953;DHT22;4511;50.890;8.054;2022-10-16T04:31:06;13.10;99.90
8953;DHT22;4511;50.890;8.054;2022-10-16T04:33:34;13.10;99.90
8953;DHT22;4511;50.890;8.054;2022-10-16T04:36:02;13.10;99.90
8953;DHT22;4511;50.890;8.054;2022-10-16T04:38:29;13.10;99.90
8953;DHT22;4511;50.890;8.054;2022-10-16T04:40:56;13.10;99.90
8953;DHT22;4511;50.890;8.054;2022-10-16T04:43:23;13.10;99.90
8953;DHT22;4511;50.890;8.054;2022-10-16T04:45:49;13.20;99.90
8953;DHT22;4511;50.890;8.054;2022-10-16T04:48:17;13.20;99.90
8953;DHT22;4511;50.890;8.054;2022-10-16T04:50:45;13.20;99.90
8953;DHT22;4511;50.890;8.054;2022-10-16T04:53:12;13.30;99.90
8953;DHT22;4511;50.890;8.054;2022-10-16T04:55:39;13.20;99.90
8953;DHT22;4511;50.890;8.054;2022-10-16T04:58:06;13.30;99.90
8953;DHT22;4511;50.890;8.054;2022-10-16T05:00:32;13.30;99.90
8953;DHT22;4511;50.890;8.054;2022-10-16T05:02:59;13.30;99.90
8953;DHT22;4511;50.890;8.054;2022-10-16T05:05:27;13.30;99.90
8953;DHT22;4511;50.890;8.054;2022-10-16T05:07:55;13.30;99.90
8953;DHT22;4511;50.890;8.054;2022-10-16T05:10:22;13.30;99.90
8953;DHT22;4511;50.890;8.054;2022-10-16T05:12:48;13.30;99.90
8953;DHT22;4511;50.890;8.054;2022-10-16T05:15:16;13.30;99.90
8953;DHT22;4511;50.890;8.054;2022-10-16T05:17:43;13.30;99.90
8953;DHT22;4511;50.890;8.054;2022-10-16T05:20:11;13.30;99.90
8953;DHT22;4511;50.890;8.054;2022-10-16T05:22:37;13.40;99.90
8953;DHT22;4511;50.890;8.054;2022-10-16T05:25:06;13.30;99.90
8953;DHT22;4511;50.890;8.054;2022-10-16T05:27:33;13.40;99.90
8953;DHT22;4511;50.890;8.054;2022-10-16T05:30:00;13.40;99.90
8953;DHT22;4511;50.890;8.054;2022-10-16T05:32:26;13.40;99.90
8953;DHT22;4511;50.890;8.054;2022-10-16T05:34:53;13.40;99.90
8953;DHT22;4511;50.890;8.054;2022-10-16T05:37:20;13.40;99.90
8953;DHT22;4511;50.890;8.054;2022-10-16T05:39:46;13.40;99.90
8953;DHT22;4511;50.890;8.054;2022-10-16T05:42:14;13.40;99.90
8953;DHT22;4511;50.890;8.054;2022-10-16T05:44:41;13.40;99.90
8953;DHT22;4511;50.890;8.054;2022-10-16T05:47:08;13.40;99.90
8953;DHT22;4511;50.890;8.054;2022-10-16T05:49:36;13.40;99.90
8953;DHT22;4511;50.890;8.054;2022-10-16T05:52:03;13.40;99.90
8953;DHT22;4511;50.890;8.054;2022-10-16T05:54:29;13.40;99.90
8953;DHT22;4511;50.890;8.054;2022-10-16T05:56:56;13.40;99.90
8953;DHT22;4511;50.890;8.054;2022-10-16T05:59:24;13.40;99.90
8953;DHT22;4511;50.890;8.054;2022-10-16T06:01:51;13.50;99.90
8953;DHT22;4511;50.890;8.054;2022-10-16T06:04:18;13.50;99.90
8953;DHT22;4511;50.890;8.054;2022-10-16T06:06:45;13.50;99.90
8953;DHT22;4511;50.890;8.054;2022-10-16T06:09:12;13.50;99.90
8953;DHT22;4511;50.890;8.054;2022-10-16T06:11:39;13.50;99.90
8953;DHT22;4511;50.890;8.054;2022-10-16T06:14:05;13.50;99.90
8953;DHT22;4511;50.890;8.054;2022-10-16T06:16:35;13.50;99.90
8953;DHT22;4511;50.890;8.054;2022-10-16T06:19:03;13.60;99.90
8953;DHT22;4511;50.890;8.054;2022-10-16T06:21:32;13.60;99.90
8953;DHT22;4511;50.890;8.054;2022-10-16T06:23:58;13.60;99.90
8953;DHT22;4511;50.890;8.054;2022-10-16T06:26:26;13.60;99.90
8953;DHT22;4511;50.890;8.054;2022-10-16T06:28:54;13.60;99.90
8953;DHT22;4511;50.890;8.054;2022-10-16T06:31:22;13.60;99.90
8953;DHT22;4511;50.890;8.054;2022-10-16T06:33:54;13.60;99.90
8953;DHT22;4511;50.890;8.054;2022-10-16T06:36:22;13.60;99.90
8953;DHT22;4511;50.890;8.054;2022-10-16T06:38:49;13.60;99.90
8953;DHT22;4511;50.890;8.054;2022-10-16T06:41:17;13.70;99.90
8953;DHT22;4511;50.890;8.054;2022-10-16T06:43:44;13.70;99.90
8953;DHT22;4511;50.890;8.054;2022-10-16T06:46:13;13.70;99.90
8953;DHT22;4511;50.890;8.054;2022-10-16T06:48:40;13.80;99.90
8953;DHT22;4511;50.890;8.054;2022-10-16T06:51:11;13.80;99.90
8953;DHT22;4511;50.890;8.054;2022-10-16T06:53:40;13.80;99.90
8953;DHT22;4511;50.890;8.054;2022-10-16T06:56:07;13.80;99.90
8953;DHT22;4511;50.890;8.054;2022-10-16T06:58:34;13.80;99.90
8953;DHT22;4511;50.890;8.054;2022-10-16T07:01:01;13.80;99.90
8953;DHT22;4511;50.890;8.054;2022-10-16T07:03:28;13.80;99.90
8953;DHT22;4511;50.890;8.054;2022-10-16T07:05:55;13.80;99.90
8953;DHT22;4511;50.890;8.054;2022-10-16T07:08:23;13.80;99.90
8953;DHT22;4511;50.890;8.054;2022-10-16T07:10:58;13.80;99.90
8953;DHT22;4511;50.890;8.054;2022-10-16T07:13:25;13.80;99.90
8953;DHT22;4511;50.890;8.054;2022-10-16T07:15:52;13.80;99.90
8953;DHT22;4511;50.890;8.054;2022-10-16T07:18:19;13.80;99.90
8953;DHT22;4511;50.890;8.054;2022-10-16T07:20:45;13.80;99.90
8953;DHT22;4511;50.890;8.054;2022-10-16T07:23:12;13.90;99.90
8953;DHT22;4511;50.890;8.054;2022-10-16T07:25:40;13.80;99.90
8953;DHT22;4511;50.890;8.054;2022-10-16T07:28:07;13.90;99.90
8953;DHT22;4511;50.890;8.054;2022-10-16T07:30:35;13.90;99.90
8953;DHT22;4511;50.890;8.054;2022-10-16T07:33:03;13.90;99.90
8953;DHT22;4511;50.890;8.054;2022-10-16T07:35:30;14.00;99.90
8953;DHT22;4511;50.890;8.054;2022-10-16T07:37:57;14.00;99.90
8953;DHT22;4511;50.890;8.054;2022-10-16T07:40:23;14.00;99.90
8953;DHT22;4511;50.890;8.054;2022-10-16T07:42:53;14.10;99.90
8953;DHT22;4511;50.890;8.054;2022-10-16T07:45:20;14.10;99.90
8953;DHT22;4511;50.890;8.054;2022-10-16T07:47:47;14.20;99.90
8953;DHT22;4511;50.890;8.054;2022-10-16T07:50:14;14.20;99.90
8953;DHT22;4511;50.890;8.054;2022-10-16T07:52:40;14.20;99.90
8953;DHT22;4511;50.890;8.054;2022-10-16T07:55:08;14.30;99.90
8953;DHT22;4511;50.890;8.054;2022-10-16T07:57:35;14.30;99.90
8953;DHT22;4511;50.890;8.054;2022-10-16T08:00:03;14.40;99.90
8953;DHT22;4511;50.890;8.054;2022-10-16T08:02:31;14.50;99.90
8953;DHT22;4511;50.890;8.054;2022-10-16T08:04:58;14.50;99.90
8953;DHT22;4511;50.890;8.054;2022-10-16T08:07:25;14.60;99.90
8953;DHT22;4511;50.890;8.054;2022-10-16T08:09:51;14.60;99.90
8953;DHT22;4511;50.890;8.054;2022-10-16T08:12:18;14.60;99.90
8953;DHT22;4511;50.890;8.054;2022-10-16T08:14:45;14.60;99.90
8953;DHT22;4511;50.890;8.054;2022-10-16T08:17:15;14.70;99.90
8953;DHT22;4511;50.890;8.054;2022-10-16T08:19:44;14.60;99.90
8953;DHT22;4511;50.890;8.054;2022-10-16T08:22:11;14.70;99.90
8953;DHT22;4511;50.890;8.054;2022-10-16T08:24:38;14.70;99.90
8953;DHT22;4511;50.890;8.054;2022-10-16T08:27:05;14.70;99.90
8953;DHT22;4511;50.890;8.054;2022-10-16T08:29:32;14.70;99.90
8953;DHT22;4511;50.890;8.054;2022-10-16T08:31:59;14.80;99.90
8953;DHT22;4511;50.890;8.054;2022-10-16T08:34:27;14.90;99.90
8953;DHT22;4511;50.890;8.054;2022-10-16T08:36:53;15.00;99.90
8953;DHT22;4511;50.890;8.054;2022-10-16T08:39:20;15.00;99.90
8953;DHT22;4511;50.890;8.054;2022-10-16T08:42:03;15.00;99.90
8953;DHT22;4511;50.890;8.054;2022-10-16T08:45:05;15.00;99.90
8953;DHT22;4511;50.890;8.054;2022-10-16T08:47:43;14.90;99.90
8953;DHT22;4511;50.890;8.054;2022-10-16T08:50:14;15.20;99.90
8953;DHT22;4511;50.890;8.054;2022-10-16T08:52:44;15.30;99.90
8953;DHT22;4511;50.890;8.054;2022-10-16T08:55:24;15.40;99.90
8953;DHT22;4511;50.890;8.054;2022-10-16T08:57:55;15.30;99.90
8953;DHT22;4511;50.890;8.054;2022-10-16T09:00:21;15.30;99.90
8953;DHT22;4511;50.890;8.054;2022-10-16T09:02:52;15.40;99.90
8953;DHT22;4511;50.890;8.054;2022-10-16T09:05:30;15.30;99.90
8953;DHT22;4511;50.890;8.054;2022-10-16T09:08:08;15.20;99.90
8953;DHT22;4511;50.890;8.054;2022-10-16T09:10:44;15.10;99.90
8953;DHT22;4511;50.890;8.054;2022-10-16T09:13:18;15.10;99.90
8953;DHT22;4511;50.890;8.054;2022-10-16T09:15:53;15.20;99.90
8953;DHT22;4511;50.890;8.054;2022-10-16T09:18:26;15.30;99.90
8953;DHT22;4511;50.890;8.054;2022-10-16T09:21:00;15.40;99.90
8953;DHT22;4511;50.890;8.054;2022-10-16T09:23:30;15.50;99.90
8953;DHT22;4511;50.890;8.054;2022-10-16T09:25:58;15.60;99.90
8953;DHT22;4511;50.890;8.054;2022-10-16T09:28:25;15.60;99.90
8953;DHT22;4511;50.890;8.054;2022-10-16T09:30:52;15.80;99.90
8953;DHT22;4511;50.890;8.054;2022-10-16T09:33:22;15.80;99.90
8953;DHT22;4511;50.890;8.054;2022-10-16T09:35:51;15.70;99.90
8953;DHT22;4511;50.890;8.054;2022-10-16T09:38:26;15.80;99.90
8953;DHT22;4511;50.890;8.054;2022-10-16T09:40:54;16.00;99.90
8953;DHT22;4511;50.890;8.054;2022-10-16T09:43:24;16.10;99.90
8953;DHT22;4511;50.890;8.054;2022-10-16T09:45:58;16.10;99.90
8953;DHT22;4511;50.890;8.054;2022-10-16T09:48:28;16.00;99.90
8953;DHT22;4511;50.890;8.054;2022-10-16T09:50:58;16.00;99.90
8953;DHT22;4511;50.890;8.054;2022-10-16T09:53:41;15.90;99.90
8953;DHT22;4511;50.890;8.054;2022-10-16T09:56:10;15.90;99.90
8953;DHT22;4511;50.890;8.054;2022-10-16T09:58:42;15.80;99.90
8953;DHT22;4511;50.890;8.054;2022-10-16T10:01:14;15.80;99.90
8953;DHT22;4511;50.890;8.054;2022-10-16T10:03:43;15.70;99.90
8953;DHT22;4511;50.890;8.054;2022-10-16T10:06:21;15.80;99.90
8953;DHT22;4511;50.890;8.054;2022-10-16T10:09:05;15.90;99.90
8953;DHT22;4511;50.890;8.054;2022-10-16T10:11:53;16.20;99.90
8953;DHT22;4511;50.890;8.054;2022-10-16T10:14:30;16.30;99.90
8953;DHT22;4511;50.890;8.054;2022-10-16T10:17:17;16.30;99.90
8953;DHT22;4511;50.890;8.054;2022-10-16T10:19:52;16.10;99.90
8953;DHT22;4511;50.890;8.054;2022-10-16T10:22:30;16.20;99.90
8953;DHT22;4511;50.890;8.054;2022-10-16T10:25:14;16.50;99.90
8953;DHT22;4511;50.890;8.054;2022-10-16T10:27:50;16.70;99.90
8953;DHT22;4511;50.890;8.054;2022-10-16T10:30:23;17.20;99.90
8953;DHT22;4511;50.890;8.054;2022-10-16T10:33:04;17.50;99.90
8953;DHT22;4511;50.890;8.054;2022-10-16T10:35:41;17.70;99.90
8953;DHT22;4511;50.890;8.054;2022-10-16T10:38:20;18.10;99.90
8953;DHT22;4511;50.890;8.054;2022-10-16T10:40:52;18.10;99.90
8953;DHT22;4511;50.890;8.054;2022-10-16T10:43:37;18.30;99.90
8953;DHT22;4511;50.890;8.054;2022-10-16T10:46:11;18.70;99.90
8953;DHT22;4511;50.890;8.054;2022-10-16T10:49:10;19.00;99.90
8953;DHT22;4511;50.890;8.054;2022-10-16T10:51:52;19.30;99.90
8953;DHT22;4511;50.890;8.054;2022-10-16T10:54:28;19.70;99.90
8953;DHT22;4511;50.890;8.054;2022-10-16T10:57:02;19.70;99.90
8953;DHT22;4511;50.890;8.054;2022-10-16T10:59:48;19.40;99.90
8953;DHT22;4511;50.890;8.054;2022-10-16T11:02:23;18.90;99.90
8953;DHT22;4511;50.890;8.054;2022-10-16T11:05:07;18.80;99.90
8953;DHT22;4511;50.890;8.054;2022-10-16T11:07:44;19.00;99.90
8953;DHT22;4511;50.890;8.054;2022-10-16T11:10:14;19.20;99.90
8953;DHT22;4511;50.890;8.054;2022-10-16T11:12:46;19.20;99.90
8953;DHT22;4511;50.890;8.054;2022-10-16T11:15:17;19.00;99.90
8953;DHT22;4511;50.890;8.054;2022-10-16T11:17:50;18.80;99.90
8953;DHT22;4511;50.890;8.054;2022-10-16T11:20:20;19.10;99.90
8953;DHT22;4511;50.890;8.054;2022-10-16T11:22:50;19.00;99.90
8953;DHT22;4511;50.890;8.054;2022-10-16T11:25:20;19.10;99.90
8953;DHT22;4511;50.890;8.054;2022-10-16T11:27:54;19.40;99.90
8953;DHT22;4511;50.890;8.054;2022-10-16T11:30:26;19.70;99.90
8953;DHT22;4511;50.890;8.054;2022-10-16T11:33:00;19.70;99.90
8953;DHT22;4511;50.890;8.054;2022-10-16T11:35:37;19.50;99.90
8953;DHT22;4511;50.890;8.054;2022-10-16T11:38:11;19.30;99.90
8953;DHT22;4511;50.890;8.054;2022-10-16T11:40:41;19.10;99.90
8953;DHT22;4511;50.890;8.054;2022-10-16T11:43:15;19.00;99.90
8953;DHT22;4511;50.890;8.054;2022-10-16T11:45:46;18.90;99.90
8953;DHT22;4511;50.890;8.054;2022-10-16T11:48:23;18.80;99.90
8953;DHT22;4511;50.890;8.054;2022-10-16T11:50:53;19.00;99.90
8953;DHT22;4511;50.890;8.054;2022-10-16T11:53:27;19.00;99.90
8953;DHT22;4511;50.890;8.054;2022-10-16T11:55:56;19.10;99.90
8953;DHT22;4511;50.890;8.054;2022-10-16T11:58:27;19.10;99.90
8953;DHT22;4511;50.890;8.054;2022-10-16T12:01:01;19.10;99.90
8953;DHT22;4511;50.890;8.054;2022-10-16T12:03:34;19.10;99.90
8953;DHT22;4511;50.890;8.054;2022-10-16T12:06:13;19.00;99.90
8953;DHT22;4511;50.890;8.054;2022-10-16T12:08:43;19.10;99.90
8953;DHT22;4511;50.890;8.054;2022-10-16T12:11:24;19.10;99.90
8953;DHT22;4511;50.890;8.054;2022-10-16T12:14:06;19.10;99.90
8953;DHT22;4511;50.890;8.054;2022-10-16T12:16:33;18.90;99.90
8953;DHT22;4511;50.890;8.054;2022-10-16T12:19:11;18.80;99.90
8953;DHT22;4511;50.890;8.054;2022-10-16T12:21:39;19.00;99.90
8953;DHT22;4511;50.890;8.054;2022-10-16T12:24:27;19.10;99.90
8953;DHT22;4511;50.890;8.054;2022-10-16T12:26:56;19.20;99.90
8953;DHT22;4511;50.890;8.054;2022-10-16T12:29:31;19.20;99.90
8953;DHT22;4511;50.890;8.054;2022-10-16T12:31:59;19.00;99.90
8953;DHT22;4511;50.890;8.054;2022-10-16T12:34:28;19.00;99.90
8953;DHT22;4511;50.890;8.054;2022-10-16T12:37:08;19.10;99.90
8953;DHT22;4511;50.890;8.054;2022-10-16T12:39:35;19.10;99.90
8953;DHT22;4511;50.890;8.054;2022-10-16T12:42:04;19.10;99.90
8953;DHT22;4511;50.890;8.054;2022-10-16T12:44:33;19.10;99.90
8953;DHT22;4511;50.890;8.054;2022-10-16T12:47:01;19.10;99.90
8953;DHT22;4511;50.890;8.054;2022-10-16T12:49:35;19.00;99.90
8953;DHT22;4511;50.890;8.054;2022-10-16T12:52:02;19.10;99.90
8953;DHT22;4511;50.890;8.054;2022-10-16T12:54:35;19.10;99.90
8953;DHT22;4511;50.890;8.054;2022-10-16T12:57:13;19.10;99.90
8953;DHT22;4511;50.890;8.054;2022-10-16T12:59:51;19.10;99.90
8953;DHT22;4511;50.890;8.054;2022-10-16T13:02:45;19.10;99.90
8953;DHT22;4511;50.890;8.054;2022-10-16T13:05:26;19.10;99.90
8953;DHT22;4511;50.890;8.054;2022-10-16T13:08:04;19.20;99.90
8953;DHT22;4511;50.890;8.054;2022-10-16T13:10:37;19.20;99.90
8953;DHT22;4511;50.890;8.054;2022-10-16T13:13:17;19.20;99.90
8953;DHT22;4511;50.890;8.054;2022-10-16T13:15:56;19.20;99.90
8953;DHT22;4511;50.890;8.054;2022-10-16T13:18:29;19.20;99.90
8953;DHT22;4511;50.890;8.054;2022-10-16T13:21:06;19.20;99.90
8953;DHT22;4511;50.890;8.054;2022-10-16T13:23:38;19.20;99.90
8953;DHT22;4511;50.890;8.054;2022-10-16T13:26:15;19.10;99.90
8953;DHT22;4511;50.890;8.054;2022-10-16T13:28:43;19.00;99.90
8953;DHT22;4511;50.890;8.054;2022-10-16T13:31:16;19.10;99.90
8953;DHT22;4511;50.890;8.054;2022-10-16T13:33:47;19.10;99.90
8953;DHT22;4511;50.890;8.054;2022-10-16T13:36:21;19.10;99.90
8953;DHT22;4511;50.890;8.054;2022-10-16T13:38:48;19.10;99.90
8953;DHT22;4511;50.890;8.054;2022-10-16T13:41:16;19.10;99.90
8953;DHT22;4511;50.890;8.054;2022-10-16T13:43:45;19.10;99.90
8953;DHT22;4511;50.890;8.054;2022-10-16T13:46:16;19.10;99.90
8953;DHT22;4511;50.890;8.054;2022-10-16T13:48:43;19.00;99.90
8953;DHT22;4511;50.890;8.054;2022-10-16T13:51:13;19.00;99.90
8953;DHT22;4511;50.890;8.054;2022-10-16T13:53:41;19.00;99.90
8953;DHT22;4511;50.890;8.054;2022-10-16T13:56:11;18.90;99.90
8953;DHT22;4511;50.890;8.054;2022-10-16T13:58:38;18.90;99.90
8953;DHT22;4511;50.890;8.054;2022-10-16T14:01:14;18.90;99.90
8953;DHT22;4511;50.890;8.054;2022-10-16T14:03:44;19.00;99.90
8953;DHT22;4511;50.890;8.054;2022-10-16T14:06:14;19.00;99.90
8953;DHT22;4511;50.890;8.054;2022-10-16T14:08:44;18.90;99.90
8953;DHT22;4511;50.890;8.054;2022-10-16T14:11:12;18.80;99.90
8953;DHT22;4511;50.890;8.054;2022-10-16T14:13:43;18.90;99.90
8953;DHT22;4511;50.890;8.054;2022-10-16T14:16:15;19.00;99.90
8953;DHT22;4511;50.890;8.054;2022-10-16T14:18:46;19.00;99.90
8953;DHT22;4511;50.890;8.054;2022-10-16T14:21:16;19.10;99.90
8953;DHT22;4511;50.890;8.054;2022-10-16T14:23:43;19.10;99.90
8953;DHT22;4511;50.890;8.054;2022-10-16T14:26:15;19.10;99.90
8953;DHT22;4511;50.890;8.054;2022-10-16T14:28:43;19.30;99.90
8953;DHT22;4511;50.890;8.054;2022-10-16T14:31:28;19.50;99.90
8953;DHT22;4511;50.890;8.054;2022-10-16T14:33:56;20.10;99.90
8953;DHT22;4511;50.890;8.054;2022-10-16T14:36:24;20.00;99.90
8953;DHT22;4511;50.890;8.054;2022-10-16T14:38:59;19.90;99.90
8953;DHT22;4511;50.890;8.054;2022-10-16T14:41:27;19.60;99.90
8953;DHT22;4511;50.890;8.054;2022-10-16T14:43:56;19.20;99.90
8953;DHT22;4511;50.890;8.054;2022-10-16T14:46:30;19.00;99.90
8953;DHT22;4511;50.890;8.054;2022-10-16T14:49:02;18.90;99.90
8953;DHT22;4511;50.890;8.054;2022-10-16T14:51:30;18.80;99.90
8953;DHT22;4511;50.890;8.054;2022-10-16T14:53:57;18.70;99.90
8953;DHT22;4511;50.890;8.054;2022-10-16T14:56:25;18.60;99.90
8953;DHT22;4511;50.890;8.054;2022-10-16T14:58:55;18.60;99.90
8953;DHT22;4511;50.890;8.054;2022-10-16T15:01:22;18.50;99.90
8953;DHT22;4511;50.890;8.054;2022-10-16T15:03:49;18.50;99.90
8953;DHT22;4511;50.890;8.054;2022-10-16T15:06:19;18.50;99.90
8953;DHT22;4511;50.890;8.054;2022-10-16T15:08:45;18.50;99.90
8953;DHT22;4511;50.890;8.054;2022-10-16T15:11:15;18.40;99.90
8953;DHT22;4511;50.890;8.054;2022-10-16T15:13:43;18.40;99.90
8953;DHT22;4511;50.890;8.054;2022-10-16T15:16:12;18.40;99.90
8953;DHT22;4511;50.890;8.054;2022-10-16T15:18:39;18.40;99.90
8953;DHT22;4511;50.890;8.054;2022-10-16T15:21:06;18.30;99.90
8953;DHT22;4511;50.890;8.054;2022-10-16T15:23:34;18.30;99.90
8953;DHT22;4511;50.890;8.054;2022-10-16T15:26:01;18.30;99.90
8953;DHT22;4511;50.890;8.054;2022-10-16T15:28:28;18.20;99.90
8953;DHT22;4511;50.890;8.054;2022-10-16T15:30:56;18.30;99.90
8953;DHT22;4511;50.890;8.054;2022-10-16T15:33:25;18.20;99.90
8953;DHT22;4511;50.890;8.054;2022-10-16T15:35:58;18.10;99.90
8953;DHT22;4511;50.890;8.054;2022-10-16T15:38:26;18.10;99.90
8953;DHT22;4511;50.890;8.054;2022-10-16T15:40:55;18.10;99.90
8953;DHT22;4511;50.890;8.054;2022-10-16T15:43:22;18.00;99.90
8953;DHT22;4511;50.890;8.054;2022-10-16T15:45:58;18.00;99.90
8953;DHT22;4511;50.890;8.054;2022-10-16T15:48:25;18.00;99.90
8953;DHT22;4511;50.890;8.054;2022-10-16T15:50:52;17.90;99.90
8953;DHT22;4511;50.890;8.054;2022-10-16T15:53:19;17.90;99.90
8953;DHT22;4511;50.890;8.054;2022-10-16T15:55:47;17.80;99.90
8953;DHT22;4511;50.890;8.054;2022-10-16T15:58:15;17.80;99.90
8953;DHT22;4511;50.890;8.054;2022-10-16T16:00:42;17.80;99.90
8953;DHT22;4511;50.890;8.054;2022-10-16T16:03:08;17.70;99.90
8953;DHT22;4511;50.890;8.054;2022-10-16T16:05:37;17.70;99.90
8953;DHT22;4511;50.890;8.054;2022-10-16T16:08:04;17.60;99.90
8953;DHT22;4511;50.890;8.054;2022-10-16T16:10:31;17.60;99.90
8953;DHT22;4511;50.890;8.054;2022-10-16T16:12:58;17.60;99.90
8953;DHT22;4511;50.890;8.054;2022-10-16T16:15:26;17.50;99.90
8953;DHT22;4511;50.890;8.054;2022-10-16T16:17:53;17.50;99.90
8953;DHT22;4511;50.890;8.054;2022-10-16T16:20:19;17.50;99.90